Camp Sherman, OR (97730)

4:09 PM PDT on October 25, 2014 (GMT -0700)
RAWS METOLIUS ARM OR US | Change Station
CLOSE
Current Station
Personal Weather Station
Location: Camp Sherman, OR
Elevation: 3439 ft
Nearby Weather Stations

Elev 3439 ft 44.63 °N, 121.61 °W | Updated 38 minutes ago

Mostly Cloudy
Mostly Cloudy
53 °F
Feels Like 53 °F
N
13
Wind Variable Wind from North
Gusts 30.0 mph

Today
High -- | Low -- °F
--% Chance of Precip.
Yesterday
High -- | Low -- °F
Precip. -- in
7:34 AM 6:05 PM
Waxing Crescent, 5% visible
Pressure 29.56 in
Visibility 10.0 miles
Clouds Few 2500 ft
Dew Point 40 °F
Humidity 62%
Rainfall 0.02 in
Snow Depth 1 in , 0 in , 0 in
UV 1 out of 12
Pollen .30 out of 12
Air Quality Not available.
Flu Activity Sporadic
METAR KRDM 252256Z 20024G40KT 10SM FEW025 13/06 A2958 RMK AO2 PK WND 22040/2247 SLP009 T01280056

More Conditions Fewer Conditions

Pressure 29.56 in
Visibility 10.0 miles
Clouds Few 2500 ft
Dew Point 40 °F
Humidity 62%
Rainfall 0.02 in
Snow Depth 1 in , 0 in , 0 in
UV 1 out of 12
Pollen .30 out of 12
Air Quality Not available.
Flu Activity Sporadic
METAR KRDM 252256Z 20024G40KT 10SM FEW025 13/06 A2958 RMK AO2 PK WND 22040/2247 SLP009 T01280056

More Conditions Fewer Conditions

10-Day Weather Forecast

Almanac

Astronomy

Oct. 25, 2014 Rise Set
Actual Time 7:34 AM PDT 6:05 PM PDT
Civil Twilight 7:04 AM PDT 6:35 PM PDT
Nautical Twilight 6:30 AM PDT 7:09 PM PDT
Astronomical Twilight 5:57 AM PDT 7:43 PM PDT
Moon 9:22 AM PDT 7:29 PM PDT
Length of Visible Light 11h 30m
Length of Day
10h 31m
Tomorrow will be 2m 50s shorter.
Waxing Crescent, 5% of the Moon is Illuminated
Today
Waxing Crescent
Oct 30
First Quarter
Nov 6
Full
Nov 14
Last Quarter
Nov 22
New

Today's Extremes

State Highs State Lows

Community

WunderPhotos

Upload Photos

1,765,021 photos uploaded!

Nearby

Snow Depth

Station Depth Elevation
Hogg Pass 1 in 4760 ft
Mckenzie 0 in 4800 ft
Three Creeks Meadow 0 in 5650 ft
Daly Lake 0 in 3600 ft
Roaring River 0 in 4900 ft

Earthquake Activity

City Distance Mag. Time & Date
No recent earthquake activity has been reported nearby.
Minimum magnitude displayed is 2.5.

Coastal Water Temperatures

Place Temperature
No Stations Reporting

Nearby Weather Stations